Time;durP1;ratioP1;P1;durP2;ratioP2;P2;SDS_P1;SDS_P2;PMS_P1;PMS_P2;Temp;Humidity;BMP_temperature;BMP_pressure;BME280_temperature;BME280_humidity;BME280_pressure;Samples;Min_cycle;Max_cycle;Signal;HPM_P1;HPM_P2
2022/10/04 00:01:50;;;;;;;3.08;1.70;;;;;;;13.92;56.53;99882.41;4500992;31;34134;-62
2022/10/04 00:04:42;;;;;;;12.05;1.73;;;;;;;13.93;56.39;99884.13;4495975;31;32925;-63
2022/10/04 00:07:12;;;;;;;3.12;1.42;;;;;;;12.88;59.69;99876.91;4484558;31;33415;-62
2022/10/04 00:09:49;;;;;;;2.50;1.35;;;;;;;13.47;57.96;99874.59;4497372;31;35010;-62
2022/10/04 00:12:19;;;;;;;1.58;1.25;;;;;;;12.76;60.64;99884.13;4493198;31;34216;-63
2022/10/04 00:14:48;;;;;;;0.75;0.65;;;;;;;12.85;59.98;99879.84;4496827;31;33835;-62
2022/10/04 00:17:22;;;;;;;1.65;1.23;;;;;;;12.45;61.57;99891.12;4497220;31;33549;-63
2022/10/04 00:19:51;;;;;;;3.20;0.80;;;;;;;12.26;62.58;99892.59;4492039;31;33676;-63
2022/10/04 00:22:23;;;;;;;5.25;2.58;;;;;;;12.91;60.74;99896.31;4497044;31;34976;-62
2022/10/04 00:25:06;;;;;;;1.95;1.15;;;;;;;12.64;61.41;99895.84;4499625;31;35013;-63
2022/10/04 00:27:35;;;;;;;2.60;1.75;;;;;;;12.56;61.77;99900.03;4488208;31;33320;-62
2022/10/04 00:30:03;;;;;;;1.85;1.20;;;;;;;12.91;60.58;99890.94;4497579;31;35050;-63
2022/10/04 00:32:41;;;;;;;3.50;1.05;;;;;;;13.12;59.88;99888.28;4495584;31;35951;-62
2022/10/04 00:35:23;;;;;;;0.50;0.50;;;;;;;12.79;61.02;99889.25;4497816;31;33869;-63
2022/10/04 00:38:25;;;;;;;7.78;2.50;;;;;;;12.71;61.20;99883.62;4488023;31;33159;-62
2022/10/04 00:40:56;;;;;;;1.27;0.82;;;;;;;13.12;60.07;99882.91;4471503;31;32760;-63
2022/10/04 00:43:28;;;;;;;1.55;0.95;;;;;;;13.25;59.64;99880.09;4495613;31;34086;-63
2022/10/04 00:46:00;;;;;;;1.25;0.95;;;;;;;13.60;58.72;99878.94;4484462;31;33893;-62
2022/10/04 00:48:49;;;;;;;1.55;1.20;;;;;;;13.47;59.01;99876.44;4484565;31;34390;-62
2022/10/04 00:51:52;;;;;;;0.88;0.75;;;;;;;13.40;59.10;99872.59;4491966;31;33815;-62
2022/10/04 00:54:30;;;;;;;0.90;0.75;;;;;;;13.40;58.82;99872.59;4496253;31;33799;-62
2022/10/04 00:57:03;;;;;;;1.45;0.93;;;;;;;12.91;60.48;99868.59;4488870;31;34992;-62
2022/10/04 00:59:34;;;;;;;2.87;1.25;;;;;;;13.31;59.73;99867.97;4494078;31;32099;-62
2022/10/04 01:02:05;;;;;;;2.00;1.23;;;;;;;13.74;58.13;99871.41;4493973;31;33718;-62
2022/10/04 01:04:40;;;;;;;4.07;2.60;;;;;;;13.56;58.71;99872.13;4491112;31;32828;-63
2022/10/04 01:07:09;;;;;;;2.55;1.08;;;;;;;13.64;58.04;99873.19;4489738;31;33724;-63
2022/10/04 01:09:44;;;;;;;2.40;2.20;;;;;;;13.37;59.27;99880.91;4484101;32;34027;-62
2022/10/04 01:12:21;;;;;;;1.85;0.95;;;;;;;14.03;57.34;99876.12;4487121;31;34766;-64
2022/10/04 01:15:03;;;;;;;0.88;0.70;;;;;;;14.07;57.02;99871.31;4492725;31;34130;-64
2022/10/04 01:17:31;;;;;;;2.50;0.90;;;;;;;13.83;57.83;99882.34;4485935;31;33870;-65
2022/10/04 01:19:59;;;;;;;2.22;1.33;;;;;;;13.99;57.34;99870.13;4499293;31;33367;-65
2022/10/04 01:22:48;;;;;;;1.67;1.27;;;;;;;13.34;59.21;99865.88;4492557;31;33742;-64
2022/10/04 01:25:47;;;;;;;2.15;1.33;;;;;;;13.07;60.41;99863.66;4482838;31;35015;-65
2022/10/04 01:28:15;;;;;;;0.88;0.85;;;;;;;13.18;59.99;99862.75;4485240;31;33649;-64
2022/10/04 01:30:43;;;;;;;3.60;1.12;;;;;;;13.30;59.84;99858.22;4484789;31;34210;-65
2022/10/04 01:33:11;;;;;;;11.45;1.27;;;;;;;12.47;62.38;99867.69;4497098;31;33958;-65
2022/10/04 01:35:39;;;;;;;1.45;0.93;;;;;;;13.15;60.70;99871.06;4485935;31;33788;-64
2022/10/04 01:38:07;;;;;;;0.93;0.82;;;;;;;13.67;58.59;99866.69;4489466;31;32481;-64
2022/10/04 01:40:42;;;;;;;1.42;1.12;;;;;;;13.17;60.60;99869.97;4481954;31;33425;-65
2022/10/04 01:43:13;;;;;;;1.37;1.00;;;;;;;13.25;60.45;99869.34;4495251;31;34369;-65
2022/10/04 01:45:50;;;;;;;1.50;0.98;;;;;;;13.11;60.64;99869.63;4482126;31;33904;-65
2022/10/04 01:48:21;;;;;;;2.70;1.40;;;;;;;13.12;60.61;99865.94;4494775;31;33843;-64
2022/10/04 01:51:04;;;;;;;1.60;0.98;;;;;;;13.12;60.38;99874.84;4492984;31;33039;-65
2022/10/04 01:53:43;;;;;;;3.92;1.23;;;;;;;13.61;59.11;99884.22;4489557;31;33742;-66
2022/10/04 01:56:13;;;;;;;1.25;0.95;;;;;;;13.43;59.77;99883.94;4484615;31;34224;-65
2022/10/04 01:58:44;;;;;;;2.35;1.35;;;;;;;13.93;58.21;99886.84;4497499;31;33078;-66
2022/10/04 02:01:22;;;;;;;1.48;0.85;;;;;;;13.63;58.79;99884.06;4491887;31;33631;-64
2022/10/04 02:03:58;;;;;;;3.62;1.25;;;;;;;13.71;58.95;99878.91;4484964;31;33718;-64
2022/10/04 02:06:26;;;;;;;3.03;1.50;;;;;;;13.95;58.10;99884.00;4487388;31;33719;-64
2022/10/04 02:08:56;;;;;;;1.08;0.93;;;;;;;13.88;58.26;99877.44;4483952;31;34497;-64
2022/10/04 02:11:27;;;;;;;1.12;0.95;;;;;;;13.82;58.50;99876.12;4483982;31;33384;-64
2022/10/04 02:13:54;;;;;;;5.68;2.00;;;;;;;14.09;57.55;99880.97;4489018;31;34024;-66
2022/10/04 02:16:23;;;;;;;1.02;0.90;;;;;;;14.04;57.88;99875.12;4491405;31;33984;-66
2022/10/04 02:18:51;;;;;;;2.83;1.20;;;;;;;13.97;57.97;99871.28;4490817;31;33583;-66
2022/10/04 02:21:20;;;;;;;1.98;1.10;;;;;;;13.88;58.30;99882.81;4479072;31;33221;-66
2022/10/04 02:23:47;;;;;;;1.42;0.95;;;;;;;14.09;57.64;99880.97;4464588;32;33388;-67
2022/10/04 02:26:15;;;;;;;3.55;3.15;;;;;;;13.80;58.11;99882.62;4486127;31;34023;-68
2022/10/04 02:28:43;;;;;;;1.35;0.88;;;;;;;13.89;58.32;99882.69;4483479;31;33785;-66
2022/10/04 02:33:58;;;;;;;2.12;1.48;;;;;;;14.21;57.26;99887.94;4489249;31;33916;-66
2022/10/04 02:36:27;;;;;;;1.80;1.00;;;;;;;14.19;57.14;99883.72;4488211;31;34981;-66
2022/10/04 02:38:59;;;;;;;2.10;0.88;;;;;;;14.06;57.60;99888.44;4490871;31;33689;-66
2022/10/04 02:41:37;;;;;;;3.08;1.15;;;;;;;14.34;56.71;99892.25;4494065;31;33125;-66
2022/10/04 02:44:19;;;;;;;0.90;0.88;;;;;;;14.36;56.69;99882.22;4486997;31;33770;-66
2022/10/04 02:46:54;;;;;;;1.62;0.93;;;;;;;14.44;56.50;99883.25;4482682;31;34852;-66
2022/10/04 02:49:30;;;;;;;;;;;;;;;14.40;56.60;99889.03;4493115;31;33841;-66
2022/10/04 02:52:06;;;;;;;2.45;1.48;;;;;;;14.37;56.84;99887.44;4490878;31;33068;-67
2022/10/04 02:55:01;;;;;;;1.30;1.05;;;;;;;14.44;56.67;99885.94;4488942;31;33916;-66
2022/10/04 02:57:32;;;;;;;0.95;0.82;;;;;;;13.96;58.04;99886.56;4489085;31;35234;-66
2022/10/04 03:00:09;;;;;;;2.20;0.68;;;;;;;14.20;57.43;99885.41;4484773;31;33765;-67
2022/10/04 03:02:38;;;;;;;6.45;1.15;;;;;;;14.02;58.06;99882.47;4485314;31;33221;-67
2022/10/04 03:05:10;;;;;;;0.95;0.70;;;;;;;14.03;58.18;99886.87;4486280;31;33643;-67
2022/10/04 03:07:38;;;;;;;4.00;2.40;;;;;;;14.03;58.61;99878.81;4484163;31;33880;-66
2022/10/04 03:10:08;;;;;;;2.15;1.15;;;;;;;14.04;58.38;99880.50;4477410;31;34715;-67
2022/10/04 03:12:37;;;;;;;2.60;1.35;;;;;;;13.83;59.03;99882.34;4487367;31;32442;-66
2022/10/04 03:15:08;;;;;;;1.98;0.77;;;;;;;13.74;59.42;99884.88;4487512;31;32377;-66
2022/10/04 03:17:35;;;;;;;1.45;1.00;;;;;;;13.51;59.90;99878.78;4495941;31;33130;-67
2022/10/04 03:20:04;;;;;;;0.90;0.73;;;;;;;14.03;58.60;99878.81;4490216;31;33589;-68
2022/10/04 03:22:32;;;;;;;0.60;0.60;;;;;;;14.13;58.14;99877.00;4479331;31;33349;-67
2022/10/04 03:25:00;;;;;;;1.60;1.20;;;;;;;13.98;58.46;99875.66;4482249;31;33618;-65
2022/10/04 03:27:31;;;;;;;3.62;1.12;;;;;;;13.97;58.47;99880.19;4475156;32;31739;-65
2022/10/04 03:30:00;;;;;;;2.83;1.30;;;;;;;13.99;58.52;99872.81;4478868;31;34698;-65
2022/10/04 03:32:30;;;;;;;1.48;0.93;;;;;;;14.06;58.30;99883.06;4493461;31;31325;-66
2022/10/04 03:35:02;;;;;;;4.28;2.65;;;;;;;14.16;57.94;99887.53;4480954;31;33837;-66
2022/10/04 03:37:34;;;;;;;1.95;1.05;;;;;;;14.04;58.27;99887.72;4493262;31;34389;-66
2022/10/04 03:40:02;;;;;;;1.65;1.10;;;;;;;13.96;58.45;99888.38;4491167;31;35675;-65
2022/10/04 03:42:33;;;;;;;6.85;1.45;;;;;;;14.00;58.63;99892.53;4493563;31;34531;-67
2022/10/04 03:45:10;;;;;;;1.70;1.52;;;;;;;14.17;57.77;99893.75;4481013;31;34679;-68
2022/10/04 03:47:39;;;;;;;0.98;0.77;;;;;;;14.12;58.12;99890.59;4490619;31;34077;-67
2022/10/04 03:50:12;;;;;;;2.00;1.27;;;;;;;14.22;57.66;99888.78;4493436;31;34950;-66
2022/10/04 03:52:46;;;;;;;2.40;1.20;;;;;;;14.17;57.84;99891.06;4496546;31;34295;-66
2022/10/04 03:55:14;;;;;;;4.20;1.30;;;;;;;14.28;57.48;99887.41;4492509;31;33221;-68
2022/10/04 03:57:42;;;;;;;2.05;1.05;;;;;;;14.16;57.80;99897.44;4480995;31;35447;-68
2022/10/04 04:00:14;;;;;;;2.00;1.20;;;;;;;14.34;57.24;99892.25;4487014;31;32667;-67
2022/10/04 04:02:55;;;;;;;0.88;0.82;;;;;;;14.36;57.14;99887.59;4484289;31;33433;-67
2022/10/04 04:05:28;;;;;;;1.17;1.00;;;;;;;14.36;57.05;99885.75;4486498;31;35382;-65
2022/10/04 04:08:06;;;;;;;3.28;1.30;;;;;;;14.37;56.96;99892.00;4493676;31;33942;-65
2022/10/04 04:10:37;;;;;;;2.25;1.20;;;;;;;14.31;57.06;99887.16;4495428;31;33536;-66
2022/10/04 04:13:17;;;;;;;1.77;0.77;;;;;;;14.05;58.03;99897.50;4494272;31;34345;-65
2022/10/04 04:15:45;;;;;;;1.98;0.82;;;;;;;14.01;58.38;99888.84;4497306;31;33675;-66
2022/10/04 04:18:16;;;;;;;1.60;1.25;;;;;;;14.07;58.08;99888.31;4488122;31;33916;-65
2022/10/04 04:20:44;;;;;;;1.02;0.73;;;;;;;13.97;58.43;99887.41;4485685;31;33817;-66
2022/10/04 04:23:18;;;;;;;12.63;1.17;;;;;;;13.93;58.57;99899.41;4493963;31;34791;-65
2022/10/04 04:25:47;;;;;;;1.52;1.20;;;;;;;14.12;58.02;99904.91;4498329;31;34065;-66
2022/10/04 04:28:20;;;;;;;2.10;1.37;;;;;;;14.32;57.38;99903.19;4495984;31;34012;-66
2022/10/04 04:30:52;;;;;;;1.27;0.93;;;;;;;14.20;57.82;99907.78;4486416;31;34697;-65
2022/10/04 04:33:30;;;;;;;1.98;1.15;;;;;;;13.66;59.17;99900.78;4482316;31;34945;-66
2022/10/04 04:36:06;;;;;;;1.95;0.95;;;;;;;13.82;59.52;99918.31;4493004;31;34908;-65
2022/10/04 04:38:34;;;;;;;1.98;0.70;;;;;;;14.30;57.70;99915.91;4482979;31;33948;-66
2022/10/04 04:41:09;;;;;;;1.35;0.93;;;;;;;14.12;58.05;99921.03;4490052;31;33807;-66
2022/10/04 04:43:42;;;;;;;1.15;0.93;;;;;;;13.64;59.43;99924.31;4490357;31;131903;-65
2022/10/04 04:46:11;;;;;;;1.33;1.12;;;;;;;14.15;58.16;99923.47;4491725;31;33752;-63
2022/10/04 04:49:00;;;;;;;3.03;1.55;;;;;;;14.11;58.23;99929.28;4490620;31;33689;-65
2022/10/04 04:51:30;;;;;;;2.17;1.50;;;;;;;13.88;58.90;99924.03;4487622;31;34652;-67
2022/10/04 04:53:59;;;;;;;2.72;1.25;;;;;;;14.15;58.17;99919.94;4479234;31;32723;-65
2022/10/04 04:56:28;;;;;;;2.90;1.08;;;;;;;13.96;58.77;99921.56;4488257;31;34881;-66
2022/10/04 04:58:58;;;;;;;2.58;1.50;;;;;;;14.02;58.79;99928.22;4495522;31;35052;-66
2022/10/04 05:01:31;;;;;;;0.70;0.70;;;;;;;13.78;59.80;99933.03;4494170;31;33104;-66
2022/10/04 05:04:01;;;;;;;2.33;1.50;;;;;;;14.14;58.75;99934.38;4493423;31;32847;-66
2022/10/04 05:06:30;;;;;;;3.47;0.95;;;;;;;14.23;58.64;99940.81;4494612;31;33758;-65
2022/10/04 05:08:58;;;;;;;0.93;0.88;;;;;;;13.85;59.70;99935.06;4494628;31;35266;-66
2022/10/04 05:11:29;;;;;;;1.00;0.70;;;;;;;14.13;59.00;99943.47;4491052;31;33752;-66
2022/10/04 05:14:02;;;;;;;3.10;1.37;;;;;;;14.29;58.54;99942.97;4482883;31;34141;-66
2022/10/04 05:16:49;;;;;;;1.67;1.48;;;;;;;14.28;58.76;99946.63;4494882;31;33912;-66
2022/10/04 05:19:35;;;;;;;1.90;0.95;;;;;;;14.49;58.35;99949.31;4491917;31;32543;-65
2022/10/04 05:22:08;;;;;;;0.93;0.65;;;;;;;14.43;58.74;99956.94;4493943;31;35066;-65
2022/10/04 05:24:40;;;;;;;1.65;0.95;;;;;;;14.65;58.05;99947.00;4485747;31;33238;-66
2022/10/04 05:27:17;;;;;;;1.75;1.15;;;;;;;14.79;57.85;99956.53;4480629;31;33845;-66
2022/10/04 05:30:04;;;;;;;5.70;2.33;;;;;;;14.67;58.31;99956.66;4481947;31;32692;-65
2022/10/04 05:32:34;;;;;;;3.53;1.37;;;;;;;14.78;58.17;99946.75;4481040;31;34131;-66
2022/10/04 05:35:09;;;;;;;2.22;1.30;;;;;;;14.36;59.70;99958.47;4487182;31;33620;-66
2022/10/04 05:37:52;;;;;;;7.37;1.58;;;;;;;14.71;59.00;99961.78;4491741;31;33887;-66
2022/10/04 05:40:29;;;;;;;2.22;1.67;;;;;;;14.80;59.14;99971.72;4483058;31;33869;-66
2022/10/04 05:42:58;;;;;;;3.53;1.12;;;;;;;14.43;60.64;99967.69;4488163;31;34805;-66
2022/10/04 05:45:27;;;;;;;1.75;1.25;;;;;;;14.56;60.48;99972.06;4489565;31;32042;-66
2022/10/04 05:47:57;;;;;;;2.60;1.12;;;;;;;14.40;60.91;99973.34;4481558;31;34693;-66
2022/10/04 05:50:40;;;;;;;2.70;1.25;;;;;;;14.75;60.14;99971.28;4486897;31;33622;-65
2022/10/04 05:53:21;;;;;;;1.17;1.08;;;;;;;14.95;59.33;99967.66;4485986;31;32497;-65
2022/10/04 05:56:04;;;;;;;2.92;1.52;;;;;;;15.19;58.66;99970.00;4493189;31;34589;-64
2022/10/04 05:58:57;;;;;;;1.33;1.17;;;;;;;14.49;60.97;99974.41;4492904;31;34734;-64
2022/10/04 06:01:42;;;;;;;1.23;0.85;;;;;;;14.69;60.61;99972.66;4495124;31;36156;-64
2022/10/04 06:04:37;;;;;;;1.83;1.23;;;;;;;14.97;60.05;99978.31;4487382;31;32781;-64
2022/10/04 06:07:20;;;;;;;2.55;1.35;;;;;;;15.14;59.78;99985.72;4485041;31;33366;-65
2022/10/04 06:09:55;;;;;;;2.42;1.52;;;;;;;14.57;61.93;99990.75;4489698;31;34705;-65
2022/10/04 06:12:32;;;;;;;4.32;2.03;;;;;;;14.51;62.76;99996.72;4497354;31;33963;-65
2022/10/04 06:15:21;;;;;;;0.95;0.80;;;;;;;14.55;61.98;99991.91;4495363;31;33973;-64
2022/10/04 06:17:59;;;;;;;1.55;1.45;;;;;;;14.58;61.73;99991.63;4486527;31;32021;-66
2022/10/04 06:20:44;;;;;;;2.40;1.65;;;;;;;14.00;63.94;100002.87;4488385;31;34413;-65
2022/10/04 06:23:15;;;;;;;2.42;1.75;;;;;;;14.66;61.75;100000.72;4489269;31;32602;-65
2022/10/04 06:25:51;;;;;;;3.45;1.45;;;;;;;14.14;63.00;100002.53;4483084;31;33587;-65
2022/10/04 06:28:44;;;;;;;1.50;1.00;;;;;;;14.14;63.61;100004.38;4492686;31;32679;-66
2022/10/04 06:31:23;;;;;;;0.98;0.80;;;;;;;14.25;63.53;100011.53;4476849;31;34835;-66
2022/10/04 06:34:34;;;;;;;3.92;1.85;;;;;;;14.44;62.88;100017.91;4496181;31;34825;-65
2022/10/04 06:37:06;;;;;;;3.37;1.40;;;;;;;14.13;64.07;100013.44;4457881;31;35168;-67
2022/10/04 06:40:11;;;;;;;1.02;0.93;;;;;;;14.98;61.40;100017.75;4490546;31;34385;-65
2022/10/04 06:42:57;;;;;;;4.78;2.30;;;;;;;14.47;63.38;100015.91;4480330;31;34927;-66
2022/10/04 06:45:40;;;;;;;3.08;1.80;;;;;;;14.73;62.60;100017.22;4492814;31;34144;-64
2022/10/04 06:48:23;;;;;;;1.12;0.98;;;;;;;14.70;63.25;100017.47;4493111;31;32237;-64
2022/10/04 06:51:17;;;;;;;3.42;1.67;;;;;;;14.50;63.57;100038.03;4487064;31;31913;-64
2022/10/04 06:54:20;;;;;;;2.05;0.98;;;;;;;14.21;65.05;100024.41;4485544;31;32458;-65
2022/10/04 06:57:00;;;;;;;2.72;1.37;;;;;;;14.73;63.39;100025.28;4485585;31;35024;-66
2022/10/04 06:59:31;;;;;;;15.70;2.37;;;;;;;14.84;62.59;100027.06;4489854;31;33660;-64
2022/10/04 07:02:03;;;;;;;1.95;1.40;;;;;;;14.67;63.57;100028.56;4482580;31;34263;-65
2022/10/04 07:04:41;;;;;;;2.37;1.15;;;;;;;15.22;61.96;100026.34;4483253;31;34831;-65
2022/10/04 07:07:38;;;;;;;1.23;1.12;;;;;;;15.38;61.63;100031.22;4493560;31;34410;-64
2022/10/04 07:10:29;;;;;;;3.72;2.30;;;;;;;15.34;62.33;100027.94;4480348;31;33842;-64
2022/10/04 07:13:05;;;;;;;3.10;1.65;;;;;;;15.37;61.43;100034.88;4483214;31;33295;-64
2022/10/04 07:15:43;;;;;;;2.53;1.40;;;;;;;15.74;60.98;100032.44;4484302;31;33822;-64
2022/10/04 07:18:17;;;;;;;1.65;1.05;;;;;;;15.90;60.75;100044.53;4490610;31;33573;-63
2022/10/04 07:20:47;;;;;;;1.40;0.90;;;;;;;15.63;60.50;100047.84;4485034;31;35266;-66
2022/10/04 07:23:22;;;;;;;1.77;1.33;;;;;;;15.54;60.89;100050.41;4485016;31;34048;-65
2022/10/04 07:25:59;;;;;;;3.15;1.33;;;;;;;15.76;60.56;100046.66;4482436;31;35092;-65
2022/10/04 07:31:21;;;;;;;1.60;1.12;;;;;;;15.33;62.52;100047.78;4491240;31;32639;-64
2022/10/04 07:33:54;;;;;;;1.10;0.77;;;;;;;15.51;61.54;100047.16;4495324;31;32116;-64
2022/10/04 07:36:31;;;;;;;2.60;1.10;;;;;;;15.53;61.56;100043.28;4487674;31;34748;-65
2022/10/04 07:39:04;;;;;;;2.72;1.42;;;;;;;15.56;61.66;100043.00;4493776;31;32728;-65
2022/10/04 07:41:35;;;;;;;1.30;0.98;;;;;;;15.96;60.86;100036.72;4487529;31;34830;-64
2022/10/04 07:44:10;;;;;;;2.20;1.23;;;;;;;16.03;60.48;100034.28;4486094;31;33338;-65
2022/10/04 07:46:41;;;;;;;2.37;1.42;;;;;;;15.75;60.95;100030.59;4490220;31;34949;-64
2022/10/04 07:49:17;;;;;;;2.28;1.33;;;;;;;15.34;62.68;100043.25;4492393;31;37407;-65
2022/10/04 07:51:50;;;;;;;6.75;1.37;;;;;;;15.34;61.83;100036.03;4484839;31;34701;-65
2022/10/04 07:54:27;;;;;;;3.55;1.23;;;;;;;16.02;60.71;100043.41;4494832;31;34313;-65
2022/10/04 07:56:59;;;;;;;4.97;2.03;;;;;;;15.75;61.59;100057.56;4477046;31;32366;-64
2022/10/04 07:59:48;;;;;;;2.28;0.98;;;;;;;15.65;61.13;100051.28;4481100;31;33827;-64
2022/10/04 08:02:36;;;;;;;4.95;1.65;;;;;;;15.82;60.93;100046.06;4488210;31;33721;-66
2022/10/04 08:05:35;;;;;;;5.22;1.30;;;;;;;15.64;60.82;100055.81;4492983;31;34216;-64
2022/10/04 08:08:24;;;;;;;4.03;1.35;;;;;;;15.29;60.91;100059.00;4488197;31;33530;-64
2022/10/04 08:11:07;;;;;;;2.97;1.12;;;;;;;15.88;59.44;100052.75;4494891;31;33122;-62
2022/10/04 08:13:49;;;;;;;2.33;1.25;;;;;;;15.37;61.43;100054.63;4492017;31;34354;-61
2022/10/04 08:17:04;;;;;;;1.08;0.77;;;;;;;15.77;60.89;100061.84;4491513;31;33625;-62
2022/10/04 08:19:49;;;;;;;4.07;1.12;;;;;;;16.09;59.26;100063.44;4438546;32;32462;-62
2022/10/04 08:22:28;;;;;;;1.63;1.30;;;;;;;15.92;58.67;100065.00;4444234;32;33623;-63
2022/10/04 08:25:10;;;;;;;2.58;1.25;;;;;;;16.02;58.81;100073.09;4480744;31;32490;-62
2022/10/04 08:31:11;;;;;;;2.55;1.25;;;;;;;17.06;56.69;100075.91;4497189;31;33904;-65
2022/10/04 08:34:21;;;;;;;2.83;1.23;;;;;;;16.26;57.96;100084.31;4497968;31;33657;-65
2022/10/04 08:37:23;;;;;;;3.10;1.17;;;;;;;16.56;57.00;100084.25;4470702;31;33611;-65
2022/10/04 08:40:13;;;;;;;1.65;0.93;;;;;;;16.81;56.41;100080.97;4488211;31;33427;-65
2022/10/04 08:42:50;;;;;;;4.30;1.55;;;;;;;16.92;56.12;100075.41;4493542;31;33709;-67
2022/10/04 08:45:43;;;;;;;1.30;1.08;;;;;;;17.07;55.28;100083.03;4493515;31;35323;-62
2022/10/04 08:48:29;;;;;;;3.55;1.17;;;;;;;16.68;55.98;100085.81;4486622;31;35834;-64
2022/10/04 08:51:33;;;;;;;3.60;2.17;;;;;;;16.71;57.19;100085.53;4494981;31;34371;-65
2022/10/04 08:54:19;;;;;;;2.87;1.15;;;;;;;17.37;54.77;100081.91;4483109;31;31936;-65
2022/10/04 08:57:05;;;;;;;3.03;1.23;;;;;;;16.95;56.34;100088.63;4486359;31;34085;-63
2022/10/04 08:59:56;;;;;;;4.28;1.62;;;;;;;17.09;54.92;100081.03;4495646;31;33632;-63
2022/10/04 09:02:37;;;;;;;3.00;1.30;;;;;;;16.71;55.56;100091.78;4484231;31;33194;-64
2022/10/04 09:05:12;;;;;;;1.20;0.88;;;;;;;16.74;55.51;100096.03;4473327;31;32356;-63
2022/10/04 09:08:04;;;;;;;2.85;1.45;;;;;;;17.09;53.71;100091.84;4488138;31;33754;-63
2022/10/04 09:10:56;;;;;;;5.70;1.73;;;;;;;16.89;53.56;100102.72;4485124;31;33900;-63
2022/10/04 09:13:32;;;;;;;2.58;0.98;;;;;;;17.05;53.44;100094.00;4484213;31;33370;-63
2022/10/04 09:16:29;;;;;;;2.53;1.15;;;;;;;17.12;53.44;100100.50;4495291;31;32715;-63
2022/10/04 09:19:20;;;;;;;5.28;1.70;;;;;;;17.15;53.56;100096.66;4487433;31;31667;-62
2022/10/04 09:22:11;;;;;;;3.22;1.55;;;;;;;17.26;53.42;100096.47;4482455;31;32653;-63
2022/10/04 09:25:20;;;;;;;4.07;1.35;;;;;;;17.72;52.05;100104.63;4483358;31;35908;-63
2022/10/04 09:27:47;;;;;;;3.28;1.33;;;;;;;17.52;53.25;100083.09;4482876;31;33465;-63
2022/10/04 09:30:33;;;;;;;4.72;1.55;;;;;;;16.98;53.75;100085.63;4497890;31;33866;-63
2022/10/04 09:33:10;;;;;;;3.62;1.37;;;;;;;17.06;53.56;100081.31;4479786;31;33431;-64
2022/10/04 09:36:02;;;;;;;2.35;1.42;;;;;;;16.92;54.48;100090.78;4488025;31;32477;-64
2022/10/04 09:38:57;;;;;;;2.80;1.48;;;;;;;16.85;53.87;100092.34;4487046;31;34000;-66
2022/10/04 09:41:51;;;;;;;1.05;0.95;;;;;;;16.68;53.64;100093.91;4498629;31;32904;-65
2022/10/04 09:44:44;;;;;;;4.67;1.27;;;;;;;16.56;54.09;100086.97;4494598;31;32583;-65
2022/10/04 09:47:20;;;;;;;4.62;1.67;;;;;;;17.13;53.92;100079.72;4492758;31;33340;-65
2022/10/04 09:50:06;;;;;;;1.90;1.10;;;;;;;16.73;54.64;100097.06;4489015;31;33565;-65
2022/10/04 09:52:43;;;;;;;1.75;1.08;;;;;;;16.82;54.79;100090.81;4485883;31;33974;-65
2022/10/04 09:55:32;;;;;;;3.62;1.75;;;;;;;16.60;54.70;100091.97;4487183;31;33660;-65
2022/10/04 09:58:10;;;;;;;1.20;0.82;;;;;;;16.84;54.44;100104.16;4489815;31;31729;-66
2022/10/04 10:00:46;;;;;;;2.60;1.37;;;;;;;16.69;54.75;100107.31;4494811;31;33622;-65
2022/10/04 10:03:34;;;;;;;7.03;1.37;;;;;;;16.65;55.26;100099.59;4483519;31;32974;-65
2022/10/04 10:06:27;;;;;;;10.77;2.03;;;;;;;17.42;52.43;100099.38;4487109;31;32185;-65
2022/10/04 10:08:58;;;;;;;2.37;1.05;;;;;;;16.81;55.18;100112.56;4482376;31;32156;-65
2022/10/04 10:14:50;;;;;;;1.35;0.75;;;;;;;16.97;53.87;100110.94;4484901;31;32850;-65
2022/10/04 10:17:23;;;;;;;2.47;1.02;;;;;;;17.33;54.04;100105.69;4492377;31;33512;-65
2022/10/04 10:20:15;;;;;;;3.58;1.40;;;;;;;17.46;53.87;100110.75;4494226;31;34728;-67
2022/10/04 10:23:15;;;;;;;2.08;1.25;;;;;;;17.27;51.58;100109.00;4494887;31;33924;-64
2022/10/04 10:26:22;;;;;;;1.33;0.98;;;;;;;16.92;52.33;100113.25;4493886;31;34082;-64
2022/10/04 10:29:10;;;;;;;3.33;1.60;;;;;;;16.65;53.03;100118.53;4489933;31;33646;-63
2022/10/04 10:31:46;;;;;;;2.35;1.25;;;;;;;17.12;51.30;100129.41;4487074;31;31761;-63
2022/10/04 10:34:37;;;;;;;1.65;0.85;;;;;;;17.53;50.40;100122.69;4496715;31;33471;-64
2022/10/04 10:37:21;;;;;;;7.30;1.35;;;;;;;17.04;51.28;100138.25;4481776;31;32121;-63
2022/10/04 10:40:26;;;;;;;9.75;1.73;;;;;;;16.51;52.66;100126.09;4497368;31;34774;-62
2022/10/04 10:43:20;;;;;;;2.20;1.00;;;;;;;16.47;51.86;100134.63;4492570;31;33377;-63
2022/10/04 10:46:18;;;;;;;4.25;1.33;;;;;;;16.62;50.96;100126.94;4484873;31;34849;-62
2022/10/04 10:48:56;;;;;;;2.55;1.10;;;;;;;17.43;49.88;100127.28;4491613;31;33324;-63
2022/10/04 10:51:42;;;;;;;2.92;1.20;;;;;;;17.04;50.65;100132.00;4499872;31;34759;-63
2022/10/04 10:54:48;;;;;;;2.55;0.85;;;;;;;16.98;51.18;100128.00;4484154;31;33218;-63
2022/10/04 10:57:46;;;;;;;3.40;1.27;;;;;;;17.01;51.69;100125.03;4488825;31;34897;-64
2022/10/04 11:00:20;;;;;;;2.58;0.93;;;;;;;16.92;51.42;100117.81;4486720;31;33996;-63
2022/10/04 11:02:58;;;;;;;1.83;1.17;;;;;;;17.35;50.36;100116.38;4487247;31;34748;-63
2022/10/04 11:06:13;;;;;;;2.03;0.85;;;;;;;18.03;49.58;100118.72;4495187;31;32297;-63
2022/10/04 11:09:18;;;;;;;2.28;1.12;;;;;;;17.13;52.42;100134.66;4492949;31;32774;-63
2022/10/04 11:11:55;;;;;;;1.80;1.00;;;;;;;17.17;52.52;100129.81;4498014;31;32703;-62
2022/10/04 11:14:37;;;;;;;2.10;1.17;;;;;;;16.93;53.87;100124.91;4479130;31;32179;-63
2022/10/04 11:17:26;;;;;;;2.72;1.10;;;;;;;17.22;52.96;100117.56;4486057;31;34542;-65
2022/10/04 11:20:23;;;;;;;2.50;1.52;;;;;;;17.39;51.77;100115.91;4494320;31;34927;-63
2022/10/04 11:23:09;;;;;;;4.05;1.85;;;;;;;17.85;52.20;100127.69;4491224;31;34060;-63
2022/10/04 11:25:59;;;;;;;2.30;1.33;;;;;;;17.85;51.67;100124.97;4498309;31;32606;-63
2022/10/04 11:28:57;;;;;;;4.30;1.70;;;;;;;17.92;51.87;100128.75;4493557;31;34945;-63
2022/10/04 11:31:53;;;;;;;2.47;1.23;;;;;;;17.68;53.18;100121.16;4487499;31;35016;-63
2022/10/04 11:34:40;;;;;;;3.25;1.73;;;;;;;17.84;53.51;100120.53;4486763;31;32707;-63
2022/10/04 11:37:22;;;;;;;4.37;2.00;;;;;;;17.92;53.40;100112.50;4492168;31;32841;-63
2022/10/04 11:40:17;;;;;;;2.35;1.08;;;;;;;18.11;53.44;100116.09;4490616;31;33346;-62
2022/10/04 11:43:03;;;;;;;4.60;1.65;;;;;;;18.05;52.80;100108.59;4483138;31;32226;-61
2022/10/04 11:45:43;;;;;;;3.30;2.08;;;;;;;17.53;53.93;100120.00;4484919;31;34074;-62
2022/10/04 11:48:32;;;;;;;3.47;1.27;;;;;;;17.57;51.67;100120.53;4484544;31;33753;-61
2022/10/04 11:51:21;;;;;;;4.57;1.50;;;;;;;17.91;50.67;100118.06;4486070;31;33489;-60
2022/10/04 11:53:51;;;;;;;5.68;1.67;;;;;;;17.33;52.01;100118.34;4495714;31;35073;-62
2022/10/04 11:56:48;;;;;;;3.80;1.73;;;;;;;17.48;51.51;100121.44;4500090;31;33431;-62
2022/10/04 11:59:31;;;;;;;4.32;1.17;;;;;;;17.19;52.41;100120.56;4491322;31;34896;-62
2022/10/04 12:02:32;;;;;;;3.80;1.30;;;;;;;17.29;52.33;100125.94;4490836;31;33256;-63
2022/10/04 12:05:31;;;;;;;5.47;1.58;;;;;;;17.67;50.73;100124.03;4489002;31;34081;-62
2022/10/04 12:08:21;;;;;;;7.57;2.58;;;;;;;18.02;49.80;100133.25;4495571;31;32155;-62
2022/10/04 12:11:19;;;;;;;2.17;1.33;;;;;;;17.70;50.48;100143.53;4499458;31;34989;-64
2022/10/04 12:14:09;;;;;;;5.40;1.35;;;;;;;17.50;50.83;100124.84;4499096;31;33405;-62
2022/10/04 12:17:09;;;;;;;3.97;1.15;;;;;;;16.92;52.84;100132.19;4500171;31;33597;-62
2022/10/04 12:19:59;;;;;;;5.00;1.67;;;;;;;17.33;51.58;100135.44;4485283;32;32312;-62
2022/10/04 12:22:48;;;;;;;3.80;1.85;;;;;;;17.07;52.82;100137.09;4490347;31;34711;-61
2022/10/04 12:25:37;;;;;;;3.40;1.75;;;;;;;17.33;52.03;100148.97;4496516;31;33521;-62
2022/10/04 12:28:18;;;;;;;4.75;1.85;;;;;;;17.12;52.66;100151.91;4493396;31;34013;-62
2022/10/04 12:30:54;;;;;;;3.72;1.48;;;;;;;17.55;52.40;100142.31;4499276;31;34048;-62
2022/10/04 12:33:36;;;;;;;3.35;1.50;;;;;;;17.62;52.45;100145.28;4485234;32;32516;-62
2022/10/04 12:36:07;;;;;;;3.60;1.95;;;;;;;17.25;53.85;100143.47;4480639;31;32028;-64
2022/10/04 12:38:44;;;;;;;3.67;1.60;;;;;;;16.77;55.96;100149.84;4489114;31;34437;-62
2022/10/04 12:41:40;;;;;;;4.18;2.25;;;;;;;17.28;54.64;100142.31;4493167;31;32646;-63